sensor_id;sensor_type;location;lat;lon;timestamp;temperature;humidity
43320;DHT22;28914;48.722;9.332;2023-09-19T00:01:59;20.70;81.30
43320;DHT22;28914;48.722;9.332;2023-09-19T00:07:18;20.70;81.30
43320;DHT22;28914;48.722;9.332;2023-09-19T00:12:43;20.70;81.60
43320;DHT22;28914;48.722;9.332;2023-09-19T00:18:03;20.60;81.30
43320;DHT22;28914;48.722;9.332;2023-09-19T00:23:25;20.60;81.50
43320;DHT22;28914;48.722;9.332;2023-09-19T00:28:44;20.50;81.40
43320;DHT22;28914;48.722;9.332;2023-09-19T00:34:04;20.50;81.50
43320;DHT22;28914;48.722;9.332;2023-09-19T00:39:23;20.50;81.60
43320;DHT22;28914;48.722;9.332;2023-09-19T00:44:44;20.50;81.60
43320;DHT22;28914;48.722;9.332;2023-09-19T00:50:04;20.50;81.50
43320;DHT22;28914;48.722;9.332;2023-09-19T00:55:28;20.60;81.70
43320;DHT22;28914;48.722;9.332;2023-09-19T01:00:49;20.50;81.50
43320;DHT22;28914;48.722;9.332;2023-09-19T01:06:08;20.50;81.30
43320;DHT22;28914;48.722;9.332;2023-09-19T01:11:36;20.50;81.30
43320;DHT22;28914;48.722;9.332;2023-09-19T01:17:09;20.60;81.60
43320;DHT22;28914;48.722;9.332;2023-09-19T01:23:14;20.60;81.90
43320;DHT22;28914;48.722;9.332;2023-09-19T01:28:52;20.60;82.30
43320;DHT22;28914;48.722;9.332;2023-09-19T01:34:16;20.50;81.90
43320;DHT22;28914;48.722;9.332;2023-09-19T01:39:35;20.50;81.80
43320;DHT22;28914;48.722;9.332;2023-09-19T01:44:57;20.50;82.00
43320;DHT22;28914;48.722;9.332;2023-09-19T01:55:48;20.50;82.20
43320;DHT22;28914;48.722;9.332;2023-09-19T02:01:12;20.40;82.30
43320;DHT22;28914;48.722;9.332;2023-09-19T02:06:34;20.50;82.30
43320;DHT22;28914;48.722;9.332;2023-09-19T02:11:53;20.40;82.30
43320;DHT22;28914;48.722;9.332;2023-09-19T02:17:15;20.40;82.00
43320;DHT22;28914;48.722;9.332;2023-09-19T02:22:34;20.50;82.10
43320;DHT22;28914;48.722;9.332;2023-09-19T02:27:53;20.50;82.00
43320;DHT22;28914;48.722;9.332;2023-09-19T02:33:13;20.50;82.00
43320;DHT22;28914;48.722;9.332;2023-09-19T02:38:32;20.40;81.80
43320;DHT22;28914;48.722;9.332;2023-09-19T02:43:51;20.40;82.00
43320;DHT22;28914;48.722;9.332;2023-09-19T02:49:11;20.40;82.10
43320;DHT22;28914;48.722;9.332;2023-09-19T02:54:33;20.30;82.00
43320;DHT22;28914;48.722;9.332;2023-09-19T02:59:52;20.30;81.90
43320;DHT22;28914;48.722;9.332;2023-09-19T03:05:11;20.20;81.80
43320;DHT22;28914;48.722;9.332;2023-09-19T03:10:30;20.00;81.80
43320;DHT22;28914;48.722;9.332;2023-09-19T03:15:50;20.00;82.10
43320;DHT22;28914;48.722;9.332;2023-09-19T03:21:09;19.90;82.60
43320;DHT22;28914;48.722;9.332;2023-09-19T03:26:29;19.80;82.60
43320;DHT22;28914;48.722;9.332;2023-09-19T03:31:48;19.80;83.10
43320;DHT22;28914;48.722;9.332;2023-09-19T03:37:07;19.80;83.30
43320;DHT22;28914;48.722;9.332;2023-09-19T03:42:26;19.80;83.30
43320;DHT22;28914;48.722;9.332;2023-09-19T03:47:46;19.90;83.50
43320;DHT22;28914;48.722;9.332;2023-09-19T03:53:08;19.90;83.30
43320;DHT22;28914;48.722;9.332;2023-09-19T03:58:28;19.90;83.40
43320;DHT22;28914;48.722;9.332;2023-09-19T04:03:47;20.00;83.40
43320;DHT22;28914;48.722;9.332;2023-09-19T04:09:06;20.00;83.20
43320;DHT22;28914;48.722;9.332;2023-09-19T04:14:26;20.00;83.10
43320;DHT22;28914;48.722;9.332;2023-09-19T04:19:45;20.10;84.00
43320;DHT22;28914;48.722;9.332;2023-09-19T04:25:04;20.10;83.20
43320;DHT22;28914;48.722;9.332;2023-09-19T04:30:25;20.10;83.00
43320;DHT22;28914;48.722;9.332;2023-09-19T04:35:44;20.00;82.70
43320;DHT22;28914;48.722;9.332;2023-09-19T04:41:04;20.00;82.70
43320;DHT22;28914;48.722;9.332;2023-09-19T04:46:23;19.80;82.60
43320;DHT22;28914;48.722;9.332;2023-09-19T04:51:42;19.70;82.80
43320;DHT22;28914;48.722;9.332;2023-09-19T04:57:01;19.60;83.30
43320;DHT22;28914;48.722;9.332;2023-09-19T05:02:20;19.50;83.70
43320;DHT22;28914;48.722;9.332;2023-09-19T05:07:40;19.40;83.90
43320;DHT22;28914;48.722;9.332;2023-09-19T05:13:00;19.40;84.30
43320;DHT22;28914;48.722;9.332;2023-09-19T05:18:19;19.50;84.50
43320;DHT22;28914;48.722;9.332;2023-09-19T05:23:38;19.50;84.70
43320;DHT22;28914;48.722;9.332;2023-09-19T05:28:58;19.60;85.00
43320;DHT22;28914;48.722;9.332;2023-09-19T05:34:17;19.60;85.30
43320;DHT22;28914;48.722;9.332;2023-09-19T05:39:36;19.70;85.50
43320;DHT22;28914;48.722;9.332;2023-09-19T05:44:56;19.80;85.70
43320;DHT22;28914;48.722;9.332;2023-09-19T05:50:15;19.80;86.40
43320;DHT22;28914;48.722;9.332;2023-09-19T05:55:35;19.90;85.60
43320;DHT22;28914;48.722;9.332;2023-09-19T06:00:55;19.90;86.50
43320;DHT22;28914;48.722;9.332;2023-09-19T06:06:16;19.90;85.80
43320;DHT22;28914;48.722;9.332;2023-09-19T06:11:35;20.00;86.10
43320;DHT22;28914;48.722;9.332;2023-09-19T06:16:55;20.10;86.60
43320;DHT22;28914;48.722;9.332;2023-09-19T06:22:18;20.20;86.70
43320;DHT22;28914;48.722;9.332;2023-09-19T06:27:38;20.40;86.50
43320;DHT22;28914;48.722;9.332;2023-09-19T06:33:00;20.40;85.70
43320;DHT22;28914;48.722;9.332;2023-09-19T06:38:19;20.40;85.20
43320;DHT22;28914;48.722;9.332;2023-09-19T06:43:38;20.30;85.10
43320;DHT22;28914;48.722;9.332;2023-09-19T06:48:58;20.20;85.20
43320;DHT22;28914;48.722;9.332;2023-09-19T06:54:17;20.20;85.50
43320;DHT22;28914;48.722;9.332;2023-09-19T06:59:36;20.20;85.70
43320;DHT22;28914;48.722;9.332;2023-09-19T07:04:56;20.20;85.90
43320;DHT22;28914;48.722;9.332;2023-09-19T07:10:15;20.30;86.30
43320;DHT22;28914;48.722;9.332;2023-09-19T07:15:35;20.40;86.80
43320;DHT22;28914;48.722;9.332;2023-09-19T07:21:06;20.70;87.10
43320;DHT22;28914;48.722;9.332;2023-09-19T07:26:25;21.00;87.00
43320;DHT22;28914;48.722;9.332;2023-09-19T07:31:45;21.30;86.50
43320;DHT22;28914;48.722;9.332;2023-09-19T07:37:05;21.60;85.80
43320;DHT22;28914;48.722;9.332;2023-09-19T07:42:24;21.90;85.00
43320;DHT22;28914;48.722;9.332;2023-09-19T07:47:49;22.10;83.70
43320;DHT22;28914;48.722;9.332;2023-09-19T07:53:08;22.30;83.30
43320;DHT22;28914;48.722;9.332;2023-09-19T07:58:28;22.40;83.10
43320;DHT22;28914;48.722;9.332;2023-09-19T08:03:47;22.70;83.50
43320;DHT22;28914;48.722;9.332;2023-09-19T08:09:06;23.10;83.00
43320;DHT22;28914;48.722;9.332;2023-09-19T08:14:29;23.40;81.20
43320;DHT22;28914;48.722;9.332;2023-09-19T08:19:49;23.80;79.50
43320;DHT22;28914;48.722;9.332;2023-09-19T08:25:12;24.30;80.50
43320;DHT22;28914;48.722;9.332;2023-09-19T08:30:31;25.10;80.80
43320;DHT22;28914;48.722;9.332;2023-09-19T08:35:50;26.30;81.40
43320;DHT22;28914;48.722;9.332;2023-09-19T08:41:09;27.40;78.20
43320;DHT22;28914;48.722;9.332;2023-09-19T08:46:30;28.50;76.00
43320;DHT22;28914;48.722;9.332;2023-09-19T08:51:55;29.60;71.80
43320;DHT22;28914;48.722;9.332;2023-09-19T08:57:18;30.20;68.40
43320;DHT22;28914;48.722;9.332;2023-09-19T09:02:41;30.50;66.10
43320;DHT22;28914;48.722;9.332;2023-09-19T09:08:02;30.20;61.50
43320;DHT22;28914;48.722;9.332;2023-09-19T09:13:23;29.50;59.50
43320;DHT22;28914;48.722;9.332;2023-09-19T09:18:45;28.60;61.50
43320;DHT22;28914;48.722;9.332;2023-09-19T09:24:26;28.00;62.20
43320;DHT22;28914;48.722;9.332;2023-09-19T09:29:48;27.50;62.30
43320;DHT22;28914;48.722;9.332;2023-09-19T09:35:10;27.40;64.50
43320;DHT22;28914;48.722;9.332;2023-09-19T09:40:46;28.10;68.00
43320;DHT22;28914;48.722;9.332;2023-09-19T09:51:42;30.60;60.90
43320;DHT22;28914;48.722;9.332;2023-09-19T09:57:17;31.20;58.20
43320;DHT22;28914;48.722;9.332;2023-09-19T10:02:39;31.20;55.40
43320;DHT22;28914;48.722;9.332;2023-09-19T10:08:10;30.70;53.60
43320;DHT22;28914;48.722;9.332;2023-09-19T10:13:35;29.90;52.40
43320;DHT22;28914;48.722;9.332;2023-09-19T10:18:58;29.20;53.20
43320;DHT22;28914;48.722;9.332;2023-09-19T10:24:22;29.10;55.20
43320;DHT22;28914;48.722;9.332;2023-09-19T10:29:43;30.40;55.40
43320;DHT22;28914;48.722;9.332;2023-09-19T10:35:05;31.40;53.30
43320;DHT22;28914;48.722;9.332;2023-09-19T10:40:27;31.50;51.50
43320;DHT22;28914;48.722;9.332;2023-09-19T10:45:50;31.80;53.80
43320;DHT22;28914;48.722;9.332;2023-09-19T10:51:22;32.90;52.90
43320;DHT22;28914;48.722;9.332;2023-09-19T10:56:46;34.80;51.80
43320;DHT22;28914;48.722;9.332;2023-09-19T11:02:17;36.90;49.60
43320;DHT22;28914;48.722;9.332;2023-09-19T11:08:09;38.50;44.60
43320;DHT22;28914;48.722;9.332;2023-09-19T11:13:30;39.20;44.40
43320;DHT22;28914;48.722;9.332;2023-09-19T11:18:53;40.20;43.50
43320;DHT22;28914;48.722;9.332;2023-09-19T11:29:41;41.60;38.40
43320;DHT22;28914;48.722;9.332;2023-09-19T11:35:07;41.40;38.70
43320;DHT22;28914;48.722;9.332;2023-09-19T11:40:27;41.30;37.90
43320;DHT22;28914;48.722;9.332;2023-09-19T11:51:20;41.00;35.40
43320;DHT22;28914;48.722;9.332;2023-09-19T11:56:46;40.40;35.80
43320;DHT22;28914;48.722;9.332;2023-09-19T12:02:12;39.40;35.70
43320;DHT22;28914;48.722;9.332;2023-09-19T12:07:43;37.80;36.00
43320;DHT22;28914;48.722;9.332;2023-09-19T12:13:04;36.10;36.20
43320;DHT22;28914;48.722;9.332;2023-09-19T12:18:29;34.50;38.10
43320;DHT22;28914;48.722;9.332;2023-09-19T12:24:12;33.10;39.10
43320;DHT22;28914;48.722;9.332;2023-09-19T12:29:48;32.00;40.60
43320;DHT22;28914;48.722;9.332;2023-09-19T12:35:08;31.00;41.20
43320;DHT22;28914;48.722;9.332;2023-09-19T12:40:30;30.20;43.00
43320;DHT22;28914;48.722;9.332;2023-09-19T12:45:52;29.60;43.90
43320;DHT22;28914;48.722;9.332;2023-09-19T12:51:12;29.10;44.40
43320;DHT22;28914;48.722;9.332;2023-09-19T12:56:40;28.70;44.90
43320;DHT22;28914;48.722;9.332;2023-09-19T13:02:09;28.30;45.60
43320;DHT22;28914;48.722;9.332;2023-09-19T13:07:44;28.00;46.20
43320;DHT22;28914;48.722;9.332;2023-09-19T13:13:24;27.80;46.20
43320;DHT22;28914;48.722;9.332;2023-09-19T13:18:49;27.60;46.90
43320;DHT22;28914;48.722;9.332;2023-09-19T13:24:25;27.40;47.30
43320;DHT22;28914;48.722;9.332;2023-09-19T13:29:48;27.30;47.70
43320;DHT22;28914;48.722;9.332;2023-09-19T13:35:07;27.30;47.60
43320;DHT22;28914;48.722;9.332;2023-09-19T13:40:28;27.10;47.50
43320;DHT22;28914;48.722;9.332;2023-09-19T13:45:49;26.90;48.10
43320;DHT22;28914;48.722;9.332;2023-09-19T13:51:09;26.80;48.20
43320;DHT22;28914;48.722;9.332;2023-09-19T13:56:28;26.70;48.50
43320;DHT22;28914;48.722;9.332;2023-09-19T14:01:50;26.70;48.60
43320;DHT22;28914;48.722;9.332;2023-09-19T14:07:12;26.70;48.80
43320;DHT22;28914;48.722;9.332;2023-09-19T14:12:31;26.60;48.70
43320;DHT22;28914;48.722;9.332;2023-09-19T14:17:51;26.60;48.90
43320;DHT22;28914;48.722;9.332;2023-09-19T14:23:10;26.60;48.90
43320;DHT22;28914;48.722;9.332;2023-09-19T14:28:29;26.60;48.70
43320;DHT22;28914;48.722;9.332;2023-09-19T14:33:57;26.50;48.70
43320;DHT22;28914;48.722;9.332;2023-09-19T14:39:18;26.60;48.90
43320;DHT22;28914;48.722;9.332;2023-09-19T14:44:39;26.60;48.50
43320;DHT22;28914;48.722;9.332;2023-09-19T14:49:58;26.50;48.70
43320;DHT22;28914;48.722;9.332;2023-09-19T14:55:17;26.50;48.60
43320;DHT22;28914;48.722;9.332;2023-09-19T15:00:39;26.50;48.70
43320;DHT22;28914;48.722;9.332;2023-09-19T15:06:06;26.50;48.70
43320;DHT22;28914;48.722;9.332;2023-09-19T15:11:25;26.50;48.90
43320;DHT22;28914;48.722;9.332;2023-09-19T15:16:45;26.50;48.20
43320;DHT22;28914;48.722;9.332;2023-09-19T15:22:04;26.40;49.00
43320;DHT22;28914;48.722;9.332;2023-09-19T15:27:24;26.40;48.60
43320;DHT22;28914;48.722;9.332;2023-09-19T15:32:43;26.30;48.80
43320;DHT22;28914;48.722;9.332;2023-09-19T15:38:03;26.20;48.80
43320;DHT22;28914;48.722;9.332;2023-09-19T15:43:23;26.10;48.90
43320;DHT22;28914;48.722;9.332;2023-09-19T15:48:42;26.00;49.20
43320;DHT22;28914;48.722;9.332;2023-09-19T15:54:10;26.00;49.10
43320;DHT22;28914;48.722;9.332;2023-09-19T15:59:30;25.80;49.30
43320;DHT22;28914;48.722;9.332;2023-09-19T16:04:49;25.80;49.40
43320;DHT22;28914;48.722;9.332;2023-09-19T16:10:08;25.70;49.60
43320;DHT22;28914;48.722;9.332;2023-09-19T16:15:27;25.60;49.60
43320;DHT22;28914;48.722;9.332;2023-09-19T16:20:47;25.60;49.70
43320;DHT22;28914;48.722;9.332;2023-09-19T16:26:07;25.40;49.80
43320;DHT22;28914;48.722;9.332;2023-09-19T16:31:28;25.30;50.30
43320;DHT22;28914;48.722;9.332;2023-09-19T16:36:48;25.20;50.50
43320;DHT22;28914;48.722;9.332;2023-09-19T16:42:07;25.10;50.80
43320;DHT22;28914;48.722;9.332;2023-09-19T16:47:27;25.00;51.80
43320;DHT22;28914;48.722;9.332;2023-09-19T16:52:46;24.80;52.20
43320;DHT22;28914;48.722;9.332;2023-09-19T16:58:06;24.60;52.70
43320;DHT22;28914;48.722;9.332;2023-09-19T17:03:26;24.40;53.30
43320;DHT22;28914;48.722;9.332;2023-09-19T17:08:45;24.20;54.10
43320;DHT22;28914;48.722;9.332;2023-09-19T17:14:05;24.00;54.10
43320;DHT22;28914;48.722;9.332;2023-09-19T17:19:28;23.80;54.60
43320;DHT22;28914;48.722;9.332;2023-09-19T17:24:47;23.60;54.80
43320;DHT22;28914;48.722;9.332;2023-09-19T17:30:09;23.40;55.50
43320;DHT22;28914;48.722;9.332;2023-09-19T17:35:30;23.20;56.00
43320;DHT22;28914;48.722;9.332;2023-09-19T17:40:49;23.00;56.70
43320;DHT22;28914;48.722;9.332;2023-09-19T17:46:13;22.80;57.00
43320;DHT22;28914;48.722;9.332;2023-09-19T17:51:32;22.60;56.90
43320;DHT22;28914;48.722;9.332;2023-09-19T17:56:52;22.40;57.20
43320;DHT22;28914;48.722;9.332;2023-09-19T18:02:11;22.20;57.60
43320;DHT22;28914;48.722;9.332;2023-09-19T18:07:31;22.00;57.90
43320;DHT22;28914;48.722;9.332;2023-09-19T18:12:50;21.80;58.10
43320;DHT22;28914;48.722;9.332;2023-09-19T18:18:10;21.60;58.00
43320;DHT22;28914;48.722;9.332;2023-09-19T18:23:31;21.40;58.50
43320;DHT22;28914;48.722;9.332;2023-09-19T18:28:50;21.30;58.90
43320;DHT22;28914;48.722;9.332;2023-09-19T18:34:09;21.10;58.90
43320;DHT22;28914;48.722;9.332;2023-09-19T18:39:28;20.90;59.30
43320;DHT22;28914;48.722;9.332;2023-09-19T18:44:49;20.80;59.90
43320;DHT22;28914;48.722;9.332;2023-09-19T18:50:08;20.70;60.10
43320;DHT22;28914;48.722;9.332;2023-09-19T18:55:28;20.60;60.40
43320;DHT22;28914;48.722;9.332;2023-09-19T19:00:47;20.50;60.80
43320;DHT22;28914;48.722;9.332;2023-09-19T19:06:11;20.40;61.30
43320;DHT22;28914;48.722;9.332;2023-09-19T19:11:32;20.30;61.60
43320;DHT22;28914;48.722;9.332;2023-09-19T19:16:53;20.20;61.70
43320;DHT22;28914;48.722;9.332;2023-09-19T19:22:12;20.10;62.20
43320;DHT22;28914;48.722;9.332;2023-09-19T19:27:31;20.00;62.40
43320;DHT22;28914;48.722;9.332;2023-09-19T19:32:51;20.00;62.50
43320;DHT22;28914;48.722;9.332;2023-09-19T19:38:10;19.90;62.60
43320;DHT22;28914;48.722;9.332;2023-09-19T19:43:30;19.80;62.90
43320;DHT22;28914;48.722;9.332;2023-09-19T19:48:49;19.70;63.30
43320;DHT22;28914;48.722;9.332;2023-09-19T19:54:11;19.60;63.40
43320;DHT22;28914;48.722;9.332;2023-09-19T19:59:32;19.50;63.80
43320;DHT22;28914;48.722;9.332;2023-09-19T20:04:51;19.40;64.20
43320;DHT22;28914;48.722;9.332;2023-09-19T20:10:12;19.30;65.10
43320;DHT22;28914;48.722;9.332;2023-09-19T20:15:35;19.20;65.70
43320;DHT22;28914;48.722;9.332;2023-09-19T20:20:56;19.00;65.50
43320;DHT22;28914;48.722;9.332;2023-09-19T20:26:15;18.90;65.20
43320;DHT22;28914;48.722;9.332;2023-09-19T20:31:35;18.80;65.20
43320;DHT22;28914;48.722;9.332;2023-09-19T20:36:55;18.70;65.40
43320;DHT22;28914;48.722;9.332;2023-09-19T20:42:15;18.60;65.80
43320;DHT22;28914;48.722;9.332;2023-09-19T20:47:35;18.50;66.10
43320;DHT22;28914;48.722;9.332;2023-09-19T20:52:54;18.40;66.70
43320;DHT22;28914;48.722;9.332;2023-09-19T20:58:13;18.30;67.00
43320;DHT22;28914;48.722;9.332;2023-09-19T21:03:36;18.20;67.00
43320;DHT22;28914;48.722;9.332;2023-09-19T21:08:56;18.10;67.40
43320;DHT22;28914;48.722;9.332;2023-09-19T21:14:15;18.00;67.20
43320;DHT22;28914;48.722;9.332;2023-09-19T21:19:34;17.90;68.40
43320;DHT22;28914;48.722;9.332;2023-09-19T21:24:54;17.90;68.00
43320;DHT22;28914;48.722;9.332;2023-09-19T21:30:14;17.80;68.10
43320;DHT22;28914;48.722;9.332;2023-09-19T21:35:43;17.70;69.00
43320;DHT22;28914;48.722;9.332;2023-09-19T21:41:10;17.60;69.50
43320;DHT22;28914;48.722;9.332;2023-09-19T21:46:30;17.50;69.40
43320;DHT22;28914;48.722;9.332;2023-09-19T21:51:50;17.50;69.80
43320;DHT22;28914;48.722;9.332;2023-09-19T21:57:09;17.40;70.40
43320;DHT22;28914;48.722;9.332;2023-09-19T22:02:28;17.30;70.20
43320;DHT22;28914;48.722;9.332;2023-09-19T22:07:48;17.20;70.10
43320;DHT22;28914;48.722;9.332;2023-09-19T22:13:08;17.20;70.20
43320;DHT22;28914;48.722;9.332;2023-09-19T22:18:28;17.10;70.70
43320;DHT22;28914;48.722;9.332;2023-09-19T22:23:49;17.10;71.00
43320;DHT22;28914;48.722;9.332;2023-09-19T22:29:09;17.00;71.20
43320;DHT22;28914;48.722;9.332;2023-09-19T22:34:28;17.00;71.70
43320;DHT22;28914;48.722;9.332;2023-09-19T22:39:47;16.90;71.90
43320;DHT22;28914;48.722;9.332;2023-09-19T22:45:06;16.80;72.10
43320;DHT22;28914;48.722;9.332;2023-09-19T22:50:32;16.80;72.10
43320;DHT22;28914;48.722;9.332;2023-09-19T22:55:55;16.70;72.30
43320;DHT22;28914;48.722;9.332;2023-09-19T23:01:17;16.70;73.20
43320;DHT22;28914;48.722;9.332;2023-09-19T23:06:55;16.70;73.10
43320;DHT22;28914;48.722;9.332;2023-09-19T23:12:18;16.60;72.80
43320;DHT22;28914;48.722;9.332;2023-09-19T23:17:42;16.60;72.80
43320;DHT22;28914;48.722;9.332;2023-09-19T23:23:01;16.50;73.10
43320;DHT22;28914;48.722;9.332;2023-09-19T23:28:20;16.50;73.10
43320;DHT22;28914;48.722;9.332;2023-09-19T23:33:40;16.50;73.60
43320;DHT22;28914;48.722;9.332;2023-09-19T23:38:59;16.40;73.40
43320;DHT22;28914;48.722;9.332;2023-09-19T23:44:18;16.40;74.50
43320;DHT22;28914;48.722;9.332;2023-09-19T23:49:37;16.40;74.50
43320;DHT22;28914;48.722;9.332;2023-09-19T23:54:57;16.30;74.20
